createdAt,value
2023-02-14T00:01:30.608Z,7.90
2023-02-14T00:04:59.997Z,8.30
2023-02-14T00:08:27.927Z,8.10
2023-02-14T00:11:54.944Z,8.40
2023-02-14T00:15:25.667Z,8.90
2023-02-14T00:19:04.833Z,8.40
2023-02-14T00:22:31.776Z,8.70
2023-02-14T00:26:01.452Z,8.70
2023-02-14T00:29:29.972Z,9.50
2023-02-14T00:38:03.282Z,8.10
2023-02-14T00:41:38.671Z,8.70
2023-02-14T00:45:06.281Z,8.60
2023-02-14T00:48:35.304Z,8.70
2023-02-14T00:52:01.808Z,9.00
2023-02-14T00:55:31.672Z,8.90
2023-02-14T00:58:59.528Z,7.90
2023-02-14T01:02:26.585Z,8.20
2023-02-14T01:05:53.749Z,7.90
2023-02-14T01:09:21.668Z,7.90
2023-02-14T01:12:49.795Z,8.30
2023-02-14T01:16:19.550Z,8.90
2023-02-14T01:19:48.865Z,9.30
2023-02-14T01:23:19.759Z,9.70
2023-02-14T01:27:09.092Z,9.30
2023-02-14T01:30:38.132Z,9.60
2023-02-14T01:34:07.268Z,10.00
2023-02-14T01:37:34.301Z,11.10
2023-02-14T01:41:02.707Z,10.00
2023-02-14T01:44:59.393Z,11.20
2023-02-14T01:48:28.393Z,10.00
2023-02-14T01:51:58.772Z,10.10
2023-02-14T01:55:29.457Z,8.70
2023-02-14T01:59:00.794Z,9.40
2023-02-14T02:02:27.613Z,10.00
2023-02-14T02:05:59.505Z,9.30
2023-02-14T02:09:32.545Z,9.50
2023-02-14T02:13:01.488Z,8.20
2023-02-14T02:17:04.621Z,8.70
2023-02-14T02:21:05.687Z,9.20
2023-02-14T02:24:40.067Z,8.60
2023-02-14T02:28:51.633Z,8.90
2023-02-14T02:32:58.933Z,9.40
2023-02-14T02:37:00.863Z,9.10
2023-02-14T02:40:41.514Z,9.20
2023-02-14T02:44:17.783Z,9.40
2023-02-14T02:47:53.135Z,9.30
2023-02-14T02:51:49.050Z,9.60
2023-02-14T02:55:28.039Z,9.20
2023-02-14T02:58:59.686Z,8.90
2023-02-14T03:02:31.477Z,8.80
2023-02-14T03:06:00.625Z,9.80
2023-02-14T03:09:55.404Z,8.90
2023-02-14T03:13:52.572Z,8.80
2023-02-14T03:17:26.509Z,8.80
2023-02-14T03:21:04.325Z,7.70
2023-02-14T03:24:41.274Z,9.30
2023-02-14T03:28:20.361Z,8.30
2023-02-14T03:31:59.574Z,7.80
2023-02-14T03:35:32.587Z,8.10
2023-02-14T03:39:05.261Z,9.00
2023-02-14T03:42:39.425Z,7.90
2023-02-14T03:46:12.034Z,9.00
2023-02-14T03:49:45.175Z,8.50
2023-02-14T03:53:15.751Z,8.30
2023-02-14T03:56:48.061Z,8.60
2023-02-14T04:00:18.497Z,9.10
2023-02-14T04:03:48.474Z,8.10
2023-02-14T04:07:17.166Z,8.50
2023-02-14T04:10:44.371Z,8.10
2023-02-14T04:14:10.911Z,9.10
2023-02-14T04:17:55.649Z,8.90
2023-02-14T04:21:23.863Z,8.20
2023-02-14T04:24:51.656Z,7.80
2023-02-14T04:28:20.148Z,7.50
2023-02-14T04:31:47.916Z,8.30
2023-02-14T04:35:15.390Z,8.30
2023-02-14T04:38:42.781Z,7.90
2023-02-14T04:42:09.905Z,7.80
2023-02-14T04:45:37.578Z,8.90
2023-02-14T04:49:04.012Z,8.30
2023-02-14T04:52:30.629Z,9.10
2023-02-14T04:55:56.999Z,8.70
2023-02-14T04:59:25.072Z,10.30
2023-02-14T05:02:52.644Z,10.20
2023-02-14T05:06:19.862Z,9.40
2023-02-14T05:09:46.414Z,10.40
2023-02-14T05:13:13.091Z,9.70
2023-02-14T05:16:41.914Z,8.70
2023-02-14T05:20:11.839Z,8.60
2023-02-14T05:23:39.134Z,8.60
2023-02-14T05:27:06.376Z,8.70
2023-02-14T05:30:33.775Z,10.00
2023-02-14T05:34:00.548Z,7.90
2023-02-14T05:37:28.056Z,8.80
2023-02-14T05:40:54.500Z,8.40
2023-02-14T05:44:21.360Z,8.90
2023-02-14T05:47:48.798Z,9.40
2023-02-14T05:51:16.053Z,8.60
2023-02-14T05:54:43.222Z,9.30
2023-02-14T05:58:10.146Z,8.80
2023-02-14T06:01:36.893Z,9.40
2023-02-14T06:05:04.043Z,9.70
2023-02-14T06:08:31.050Z,9.80
2023-02-14T06:11:57.546Z,8.80
2023-02-14T06:15:25.210Z,9.90
2023-02-14T06:18:51.905Z,10.20
2023-02-14T06:22:19.249Z,8.40
2023-02-14T06:25:45.979Z,8.40
2023-02-14T06:29:13.232Z,8.50
2023-02-14T06:32:40.622Z,7.90
2023-02-14T06:36:08.805Z,8.90
2023-02-14T06:39:35.877Z,7.90
2023-02-14T06:43:03.147Z,7.70
2023-02-14T06:46:30.102Z,8.00
2023-02-14T06:49:57.148Z,8.40
2023-02-14T06:53:23.691Z,8.90
2023-02-14T06:56:50.110Z,9.50
2023-02-14T07:00:18.120Z,9.40
2023-02-14T07:03:45.173Z,9.60
2023-02-14T07:07:11.664Z,9.50
2023-02-14T07:10:38.761Z,10.20
2023-02-14T07:14:05.522Z,8.90
2023-02-14T07:17:32.008Z,8.40
2023-02-14T07:20:58.985Z,10.00
2023-02-14T07:24:25.981Z,9.90
2023-02-14T07:27:52.612Z,9.30
2023-02-14T07:31:20.131Z,8.90
2023-02-14T07:34:48.072Z,8.00
2023-02-14T07:38:14.748Z,8.20
2023-02-14T07:41:41.552Z,7.70
2023-02-14T07:45:21.263Z,7.00
2023-02-14T07:48:49.217Z,7.70
2023-02-14T07:52:15.968Z,6.30
2023-02-14T07:55:43.186Z,7.00
2023-02-14T07:59:09.968Z,7.90
2023-02-14T08:02:37.151Z,8.70
2023-02-14T08:06:04.600Z,7.70
2023-02-14T08:09:31.750Z,7.00
2023-02-14T08:13:04.337Z,6.90
2023-02-14T08:16:35.901Z,7.70
2023-02-14T08:20:02.832Z,7.50
2023-02-14T08:23:31.041Z,7.50
2023-02-14T08:26:58.657Z,8.00
2023-02-14T08:30:25.975Z,8.00
2023-02-14T08:33:52.599Z,7.50
2023-02-14T08:37:20.352Z,7.90
2023-02-14T08:40:48.287Z,7.00
2023-02-14T08:44:16.949Z,6.70
2023-02-14T08:47:43.837Z,6.80
2023-02-14T08:51:12.361Z,6.00
2023-02-14T08:54:39.547Z,6.20
2023-02-14T08:58:07.605Z,6.40
2023-02-14T09:01:39.254Z,6.10
2023-02-14T09:05:08.303Z,6.50
2023-02-14T09:08:36.195Z,6.10
2023-02-14T09:12:07.320Z,6.20
2023-02-14T09:15:34.978Z,6.30
2023-02-14T09:19:03.037Z,7.20
2023-02-14T09:22:29.497Z,6.80
2023-02-14T09:26:03.819Z,6.80
2023-02-14T09:29:31.397Z,6.80
2023-02-14T09:32:58.563Z,7.00
2023-02-14T09:36:42.942Z,6.70
2023-02-14T09:40:14.780Z,7.00
2023-02-14T09:43:52.663Z,6.50
2023-02-14T09:47:36.817Z,6.30
2023-02-14T09:51:07.171Z,6.80
2023-02-14T09:54:37.264Z,6.30
2023-02-14T09:58:11.679Z,6.30
2023-02-14T10:01:44.555Z,7.70
2023-02-14T10:05:20.754Z,8.40
2023-02-14T10:09:00.548Z,9.10
2023-02-14T10:12:35.699Z,8.40
2023-02-14T10:16:09.810Z,8.30
2023-02-14T10:19:42.156Z,7.70
2023-02-14T10:23:24.398Z,9.40
2023-02-14T10:26:54.394Z,6.80
2023-02-14T10:30:24.809Z,8.80
2023-02-14T10:34:07.463Z,8.00
2023-02-14T10:37:53.477Z,7.30
2023-02-14T10:41:34.156Z,7.80
2023-02-14T10:45:16.904Z,8.70
2023-02-14T10:48:56.889Z,9.10
2023-02-14T10:52:32.608Z,9.20
2023-02-14T10:56:14.971Z,8.40
2023-02-14T10:59:52.796Z,9.00
2023-02-14T11:03:22.556Z,9.10
2023-02-14T11:06:54.255Z,9.80
2023-02-14T11:10:27.100Z,9.00
2023-02-14T11:13:56.053Z,9.50
2023-02-14T11:17:32.684Z,8.40
2023-02-14T11:21:07.674Z,8.30
2023-02-14T11:24:38.772Z,7.20
2023-02-14T11:28:09.717Z,7.70
2023-02-14T11:31:39.220Z,7.20
2023-02-14T11:35:09.150Z,7.50
2023-02-14T11:38:38.882Z,7.60
2023-02-14T11:42:07.667Z,7.80
2023-02-14T11:45:37.307Z,7.70
2023-02-14T11:49:07.264Z,6.80
2023-02-14T11:52:35.243Z,7.10
2023-02-14T11:56:28.506Z,7.00
2023-02-14T12:00:07.365Z,7.40
2023-02-14T12:03:48.602Z,7.80
2023-02-14T12:07:32.582Z,6.40
2023-02-14T12:11:19.369Z,6.30
2023-02-14T12:14:51.983Z,6.30
2023-02-14T12:18:39.287Z,6.20
2023-02-14T12:22:08.079Z,5.70
2023-02-14T12:25:50.157Z,6.00
2023-02-14T12:29:23.527Z,7.40
2023-02-14T12:32:53.334Z,6.00
2023-02-14T12:36:40.503Z,5.60
2023-02-14T12:40:18.667Z,5.90
2023-02-14T12:43:53.186Z,5.50
2023-02-14T12:47:30.006Z,5.30
2023-02-14T12:51:03.362Z,5.30
2023-02-14T12:54:50.940Z,5.50
2023-02-14T12:58:29.917Z,6.60
2023-02-14T13:02:30.473Z,5.60
2023-02-14T13:06:03.698Z,5.70
2023-02-14T13:13:09.237Z,4.70
2023-02-14T13:16:42.846Z,5.00
2023-02-14T13:20:36.256Z,5.00
2023-02-14T13:24:18.669Z,5.70
2023-02-14T13:27:45.887Z,5.00
2023-02-14T13:31:15.523Z,5.00
2023-02-14T13:34:55.662Z,5.80
2023-02-14T13:38:23.368Z,5.90
2023-02-14T13:41:53.433Z,5.90
2023-02-14T14:07:10.049Z,5.00
2023-02-14T14:10:44.917Z,5.60
2023-02-14T14:14:42.015Z,5.20
2023-02-14T14:18:37.912Z,4.60
2023-02-14T14:22:04.119Z,5.50
2023-02-14T14:25:36.902Z,4.70
2023-02-14T14:29:00.329Z,16.40
2023-02-14T14:32:30.688Z,10.00
2023-02-14T14:35:55.325Z,11.00
2023-02-14T14:39:29.629Z,6.60
2023-02-14T14:42:54.607Z,7.00
2023-02-14T14:46:18.757Z,5.40
2023-02-14T14:49:42.070Z,6.40
2023-02-14T14:53:08.956Z,6.90
2023-02-14T14:56:35.417Z,6.10
2023-02-14T15:00:19.183Z,9.20
2023-02-14T15:03:42.788Z,7.50
2023-02-14T15:07:23.500Z,7.90
2023-02-14T15:10:52.364Z,7.30
2023-02-14T15:14:21.160Z,8.90
2023-02-14T15:17:48.214Z,8.70
2023-02-14T15:21:13.397Z,7.40
2023-02-14T15:24:39.048Z,8.40
2023-02-14T15:28:03.359Z,6.10
2023-02-14T15:31:31.518Z,5.70
2023-02-14T15:34:55.760Z,6.50
2023-02-14T15:38:20.331Z,5.80
2023-02-14T15:41:45.722Z,6.50
2023-02-14T15:45:29.592Z,6.80
2023-02-14T15:48:53.794Z,6.70
2023-02-14T15:52:17.919Z,7.00
2023-02-14T15:55:43.134Z,6.80
2023-02-14T15:59:17.147Z,7.30
2023-02-14T16:02:41.753Z,8.30
2023-02-14T16:06:06.049Z,12.50
2023-02-14T16:09:33.799Z,13.00
2023-02-14T16:13:03.717Z,13.00
2023-02-14T16:16:49.571Z,19.10
2023-02-14T16:20:44.401Z,23.20
2023-02-14T16:24:20.520Z,23.50
2023-02-14T16:27:48.435Z,19.10
2023-02-14T16:31:17.208Z,19.00
2023-02-14T16:34:43.104Z,16.00
2023-02-14T16:38:16.349Z,17.20
2023-02-14T16:41:44.654Z,17.80
2023-02-14T16:45:14.271Z,16.90
2023-02-14T16:48:39.798Z,15.40
2023-02-14T16:52:03.332Z,15.20
2023-02-14T16:55:29.500Z,13.20
2023-02-14T16:58:53.589Z,14.20
2023-02-14T17:02:18.651Z,13.80
2023-02-14T17:05:44.318Z,12.90
2023-02-14T17:09:13.036Z,13.00
2023-02-14T17:12:41.450Z,14.30
2023-02-14T17:16:07.005Z,13.30
2023-02-14T17:19:32.647Z,14.10
2023-02-14T17:22:59.233Z,12.90
2023-02-14T17:26:24.295Z,10.40
2023-02-14T17:29:51.092Z,11.40
2023-02-14T17:33:16.598Z,15.90
2023-02-14T17:36:41.407Z,14.20
2023-02-14T17:40:05.776Z,16.10
2023-02-14T17:43:30.448Z,17.20
2023-02-14T17:46:54.733Z,21.70
2023-02-14T17:50:19.787Z,23.00
2023-02-14T17:53:47.632Z,21.70
2023-02-14T17:57:12.562Z,20.80
2023-02-14T18:00:36.011Z,19.40
2023-02-14T18:04:00.160Z,22.90
2023-02-14T18:07:23.954Z,23.80
2023-02-14T18:10:47.727Z,25.60
2023-02-14T18:17:35.182Z,26.90
2023-02-14T18:21:01.206Z,31.10
2023-02-14T18:24:26.261Z,41.70
2023-02-14T18:27:49.720Z,40.10
2023-02-14T18:31:14.817Z,40.40
2023-02-14T18:34:38.500Z,43.60
2023-02-14T18:38:05.548Z,46.50
2023-02-14T18:41:32.279Z,46.60
2023-02-14T18:44:56.299Z,47.10
2023-02-14T18:48:19.630Z,50.30
2023-02-14T18:51:44.028Z,45.80
2023-02-14T18:55:09.335Z,44.10
2023-02-14T18:58:33.494Z,42.70
2023-02-14T19:01:57.061Z,43.50
2023-02-14T19:05:21.178Z,43.00
2023-02-14T19:08:46.806Z,46.10
2023-02-14T19:12:17.248Z,48.90
2023-02-14T19:15:44.668Z,49.30
2023-02-14T19:19:10.035Z,50.90
2023-02-14T19:22:38.695Z,51.20
2023-02-14T19:26:10.523Z,56.90
2023-02-14T19:29:34.450Z,57.70
2023-02-14T19:33:00.976Z,58.80
2023-02-14T19:36:26.017Z,58.70
2023-02-14T19:39:53.169Z,55.50
2023-02-14T19:43:16.961Z,58.00
2023-02-14T19:50:07.721Z,55.90
2023-02-14T19:53:34.880Z,54.80
2023-02-14T19:56:58.051Z,53.60
2023-02-14T20:00:24.973Z,52.50
2023-02-14T20:03:56.967Z,50.00
2023-02-14T20:07:21.633Z,59.40
2023-02-14T20:10:49.192Z,55.40
2023-02-14T20:14:17.078Z,57.40
2023-02-14T20:17:44.255Z,61.50
2023-02-14T20:21:17.432Z,59.60
2023-02-14T20:24:44.803Z,56.00
2023-02-14T20:28:08.763Z,49.00
2023-02-14T20:31:34.128Z,47.50
2023-02-14T20:34:58.916Z,46.50
2023-02-14T20:38:22.556Z,49.30
2023-02-14T20:41:49.403Z,52.90
2023-02-14T20:45:13.793Z,59.50
2023-02-14T20:48:37.577Z,56.10
2023-02-14T20:52:01.391Z,54.60
2023-02-14T20:55:27.007Z,56.20
2023-02-14T20:58:50.976Z,57.30
2023-02-14T21:02:15.557Z,65.30
2023-02-14T21:05:40.660Z,70.30
2023-02-14T21:09:04.622Z,73.20
2023-02-14T21:12:28.551Z,57.10
2023-02-14T21:15:55.738Z,70.10
2023-02-14T21:19:19.887Z,74.30
2023-02-14T21:22:59.147Z,73.50
2023-02-14T21:26:24.320Z,69.40
2023-02-14T21:29:49.550Z,63.10
2023-02-14T21:33:15.678Z,59.20
2023-02-14T21:36:40.311Z,57.80
2023-02-14T21:40:08.739Z,55.20
2023-02-14T21:43:35.563Z,55.80
2023-02-14T21:46:59.734Z,54.90
2023-02-14T21:50:32.992Z,54.40
2023-02-14T21:53:59.340Z,56.00
2023-02-14T21:57:23.089Z,57.90
2023-02-14T22:00:56.547Z,62.70
2023-02-14T22:07:42.548Z,57.40
2023-02-14T22:11:10.735Z,60.10
2023-02-14T22:14:33.998Z,57.40
2023-02-14T22:17:57.834Z,56.10
2023-02-14T22:21:24.123Z,56.90
2023-02-14T22:24:47.480Z,56.60
2023-02-14T22:28:11.875Z,57.20
2023-02-14T22:31:37.618Z,58.10
2023-02-14T22:35:01.532Z,61.10
2023-02-14T22:38:26.653Z,62.00
2023-02-14T22:41:52.344Z,67.10
2023-02-14T22:45:17.112Z,75.00
2023-02-14T22:48:41.566Z,72.70
2023-02-14T22:52:07.753Z,74.40
2023-02-14T22:55:31.408Z,76.20
2023-02-14T22:58:57.143Z,75.00
2023-02-14T23:02:20.619Z,75.40
2023-02-14T23:05:47.355Z,80.50
2023-02-14T23:09:13.441Z,82.70
2023-02-14T23:12:56.266Z,87.10
2023-02-14T23:16:40.411Z,89.70
2023-02-14T23:20:23.017Z,96.00
2023-02-14T23:23:47.951Z,100.00
2023-02-14T23:27:12.179Z,97.50
2023-02-14T23:30:36.001Z,95.50
2023-02-14T23:33:59.880Z,100.00
2023-02-14T23:37:25.037Z,117.30
2023-02-14T23:41:11.620Z,115.80
2023-02-14T23:44:37.361Z,108.20
2023-02-14T23:48:04.697Z,112.30
2023-02-14T23:51:28.224Z,109.90
2023-02-14T23:54:51.976Z,103.00
2023-02-14T23:58:15.840Z,98.70
